sensor_id;sensor_type;location;lat;lon;timestamp;P1;durP1;ratioP1;P2;durP2;ratioP2
23222;SDS011;11780;13.904;100.620;2023-05-10T00:02:24;11.57;;;9.98;;
23222;SDS011;11780;13.904;100.620;2023-05-10T00:07:25;10.30;;;9.10;;
23222;SDS011;11780;13.904;100.620;2023-05-10T00:09:56;10.77;;;8.82;;
23222;SDS011;11780;13.904;100.620;2023-05-10T00:12:26;10.57;;;9.52;;
23222;SDS011;11780;13.904;100.620;2023-05-10T00:14:56;10.40;;;9.00;;
23222;SDS011;11780;13.904;100.620;2023-05-10T00:17:26;9.82;;;8.93;;
23222;SDS011;11780;13.904;100.620;2023-05-10T00:19:57;9.63;;;8.73;;
23222;SDS011;11780;13.904;100.620;2023-05-10T00:22:27;9.50;;;8.23;;
23222;SDS011;11780;13.904;100.620;2023-05-10T00:24:57;10.38;;;9.27;;
23222;SDS011;11780;13.904;100.620;2023-05-10T00:27:28;9.90;;;8.88;;
23222;SDS011;11780;13.904;100.620;2023-05-10T00:29:58;9.85;;;8.85;;
23222;SDS011;11780;13.904;100.620;2023-05-10T00:32:28;9.60;;;8.57;;
23222;SDS011;11780;13.904;100.620;2023-05-10T00:34:59;9.80;;;8.90;;
23222;SDS011;11780;13.904;100.620;2023-05-10T00:37:29;9.93;;;8.63;;
23222;SDS011;11780;13.904;100.620;2023-05-10T00:39:59;12.60;;;9.85;;
23222;SDS011;11780;13.904;100.620;2023-05-10T00:42:30;9.70;;;8.80;;
23222;SDS011;11780;13.904;100.620;2023-05-10T00:45:00;9.83;;;8.93;;
23222;SDS011;11780;13.904;100.620;2023-05-10T00:47:31;9.40;;;8.50;;
23222;SDS011;11780;13.904;100.620;2023-05-10T00:50:02;10.73;;;9.02;;
23222;SDS011;11780;13.904;100.620;2023-05-10T00:52:32;9.98;;;8.95;;
23222;SDS011;11780;13.904;100.620;2023-05-10T00:55:03;10.55;;;9.60;;
23222;SDS011;11780;13.904;100.620;2023-05-10T00:57:34;9.70;;;8.70;;
23222;SDS011;11780;13.904;100.620;2023-05-10T01:00:05;10.90;;;9.80;;
23222;SDS011;11780;13.904;100.620;2023-05-10T01:02:35;11.05;;;9.70;;
23222;SDS011;11780;13.904;100.620;2023-05-10T01:05:06;10.97;;;9.87;;
23222;SDS011;11780;13.904;100.620;2023-05-10T01:07:37;10.93;;;9.52;;
23222;SDS011;11780;13.904;100.620;2023-05-10T01:10:08;9.90;;;9.00;;
23222;SDS011;11780;13.904;100.620;2023-05-10T01:12:41;9.98;;;8.98;;
23222;SDS011;11780;13.904;100.620;2023-05-10T01:15:14;9.40;;;8.43;;
23222;SDS011;11780;13.904;100.620;2023-05-10T01:17:47;8.70;;;7.90;;
23222;SDS011;11780;13.904;100.620;2023-05-10T01:20:18;10.02;;;8.27;;
23222;SDS011;11780;13.904;100.620;2023-05-10T01:34:02;9.50;;;8.52;;
23222;SDS011;11780;13.904;100.620;2023-05-10T01:36:48;9.57;;;8.55;;
23222;SDS011;11780;13.904;100.620;2023-05-10T01:39:28;9.88;;;8.88;;
23222;SDS011;11780;13.904;100.620;2023-05-10T01:42:08;8.98;;;8.07;;
23222;SDS011;11780;13.904;100.620;2023-05-10T01:48:23;9.38;;;8.48;;
23222;SDS011;11780;13.904;100.620;2023-05-10T01:50:38;9.02;;;8.13;;
23222;SDS011;11780;13.904;100.620;2023-05-10T01:53:13;9.13;;;8.30;;
23222;SDS011;11780;13.904;100.620;2023-05-10T01:55:48;9.25;;;8.35;;
23222;SDS011;11780;13.904;100.620;2023-05-10T01:58:29;9.65;;;8.65;;
23222;SDS011;11780;13.904;100.620;2023-05-10T02:01:01;10.55;;;8.63;;
23222;SDS011;11780;13.904;100.620;2023-05-10T02:03:34;9.00;;;8.10;;
23222;SDS011;11780;13.904;100.620;2023-05-10T02:06:09;9.20;;;8.23;;
23222;SDS011;11780;13.904;100.620;2023-05-10T02:08:42;9.63;;;8.73;;
23222;SDS011;11780;13.904;100.620;2023-05-10T02:11:16;9.40;;;8.50;;
23222;SDS011;11780;13.904;100.620;2023-05-10T02:13:49;8.52;;;7.80;;
23222;SDS011;11780;13.904;100.620;2023-05-10T02:16:27;9.13;;;8.23;;
23222;SDS011;11780;13.904;100.620;2023-05-10T02:19:00;11.65;;;8.20;;
23222;SDS011;11780;13.904;100.620;2023-05-10T02:21:31;11.27;;;8.45;;
23222;SDS011;11780;13.904;100.620;2023-05-10T02:24:03;9.75;;;8.13;;
23222;SDS011;11780;13.904;100.620;2023-05-10T02:26:35;10.85;;;8.60;;
23222;SDS011;11780;13.904;100.620;2023-05-10T02:29:07;10.73;;;9.63;;
23222;SDS011;11780;13.904;100.620;2023-05-10T02:31:41;10.13;;;9.32;;
23222;SDS011;11780;13.904;100.620;2023-05-10T02:36:44;11.40;;;8.55;;
23222;SDS011;11780;13.904;100.620;2023-05-10T02:39:15;11.50;;;9.15;;
23222;SDS011;11780;13.904;100.620;2023-05-10T02:41:48;9.38;;;8.48;;
23222;SDS011;11780;13.904;100.620;2023-05-10T02:44:20;12.07;;;10.88;;
23222;SDS011;11780;13.904;100.620;2023-05-10T02:46:52;11.40;;;10.30;;
23222;SDS011;11780;13.904;100.620;2023-05-10T02:49:25;12.48;;;10.77;;
23222;SDS011;11780;13.904;100.620;2023-05-10T02:51:56;13.30;;;10.37;;
23222;SDS011;11780;13.904;100.620;2023-05-10T02:54:34;12.13;;;10.20;;
23222;SDS011;11780;13.904;100.620;2023-05-10T02:57:15;13.10;;;11.80;;
23222;SDS011;11780;13.904;100.620;2023-05-10T02:59:49;15.40;;;13.55;;
23222;SDS011;11780;13.904;100.620;2023-05-10T03:02:20;14.48;;;12.98;;
23222;SDS011;11780;13.904;100.620;2023-05-10T03:04:51;15.17;;;13.67;;
23222;SDS011;11780;13.904;100.620;2023-05-10T03:07:21;11.97;;;10.67;;
23222;SDS011;11780;13.904;100.620;2023-05-10T03:09:52;13.77;;;12.02;;
23222;SDS011;11780;13.904;100.620;2023-05-10T03:18:09;13.77;;;11.20;;
23222;SDS011;11780;13.904;100.620;2023-05-10T03:21:02;12.18;;;10.98;;
23222;SDS011;11780;13.904;100.620;2023-05-10T03:23:43;12.00;;;10.88;;
23222;SDS011;11780;13.904;100.620;2023-05-10T03:26:21;11.45;;;10.35;;
23222;SDS011;11780;13.904;100.620;2023-05-10T03:29:06;12.65;;;11.18;;
23222;SDS011;11780;13.904;100.620;2023-05-10T03:31:38;12.52;;;11.23;;
23222;SDS011;11780;13.904;100.620;2023-05-10T03:34:08;12.30;;;11.00;;
23222;SDS011;11780;13.904;100.620;2023-05-10T03:36:38;12.02;;;10.80;;
23222;SDS011;11780;13.904;100.620;2023-05-10T03:39:09;15.02;;;10.80;;
23222;SDS011;11780;13.904;100.620;2023-05-10T03:41:40;12.63;;;11.02;;
23222;SDS011;11780;13.904;100.620;2023-05-10T03:44:10;12.35;;;10.95;;
23222;SDS011;11780;13.904;100.620;2023-05-10T03:46:41;11.95;;;10.95;;
23222;SDS011;11780;13.904;100.620;2023-05-10T03:49:11;17.15;;;11.40;;
23222;SDS011;11780;13.904;100.620;2023-05-10T03:51:43;13.30;;;12.10;;
23222;SDS011;11780;13.904;100.620;2023-05-10T03:54:13;12.48;;;11.20;;
23222;SDS011;11780;13.904;100.620;2023-05-10T03:56:45;13.52;;;12.23;;
23222;SDS011;11780;13.904;100.620;2023-05-10T03:59:18;12.65;;;11.32;;
23222;SDS011;11780;13.904;100.620;2023-05-10T04:01:50;13.13;;;11.90;;
23222;SDS011;11780;13.904;100.620;2023-05-10T04:04:21;12.38;;;11.27;;
23222;SDS011;11780;13.904;100.620;2023-05-10T04:06:53;13.15;;;11.70;;
23222;SDS011;11780;13.904;100.620;2023-05-10T04:09:24;13.17;;;11.13;;
23222;SDS011;11780;13.904;100.620;2023-05-10T04:11:54;13.40;;;12.10;;
23222;SDS011;11780;13.904;100.620;2023-05-10T04:14:24;12.40;;;11.25;;
23222;SDS011;11780;13.904;100.620;2023-05-10T04:16:54;14.77;;;12.25;;
23222;SDS011;11780;13.904;100.620;2023-05-10T04:19:28;14.02;;;12.63;;
23222;SDS011;11780;13.904;100.620;2023-05-10T04:22:02;14.50;;;13.02;;
23222;SDS011;11780;13.904;100.620;2023-05-10T04:24:32;13.35;;;12.07;;
23222;SDS011;11780;13.904;100.620;2023-05-10T04:27:02;13.27;;;12.07;;
23222;SDS011;11780;13.904;100.620;2023-05-10T04:29:32;14.50;;;13.10;;
23222;SDS011;11780;13.904;100.620;2023-05-10T04:34:33;13.82;;;12.43;;
23222;SDS011;11780;13.904;100.620;2023-05-10T04:37:04;14.25;;;12.85;;
23222;SDS011;11780;13.904;100.620;2023-05-10T04:39:34;14.63;;;13.23;;
23222;SDS011;11780;13.904;100.620;2023-05-10T04:42:08;15.38;;;13.80;;
23222;SDS011;11780;13.904;100.620;2023-05-10T04:44:38;14.50;;;12.93;;
23222;SDS011;11780;13.904;100.620;2023-05-10T04:47:08;14.60;;;13.20;;
23222;SDS011;11780;13.904;100.620;2023-05-10T04:49:39;16.13;;;14.45;;
23222;SDS011;11780;13.904;100.620;2023-05-10T04:52:09;15.52;;;13.82;;
23222;SDS011;11780;13.904;100.620;2023-05-10T04:54:39;17.30;;;14.57;;
23222;SDS011;11780;13.904;100.620;2023-05-10T04:57:09;15.45;;;13.85;;
23222;SDS011;11780;13.904;100.620;2023-05-10T04:59:40;15.37;;;13.77;;
23222;SDS011;11780;13.904;100.620;2023-05-10T05:02:10;14.37;;;13.10;;
23222;SDS011;11780;13.904;100.620;2023-05-10T05:04:41;14.13;;;12.50;;
23222;SDS011;11780;13.904;100.620;2023-05-10T05:07:11;13.63;;;12.43;;
23222;SDS011;11780;13.904;100.620;2023-05-10T05:09:41;14.18;;;12.75;;
23222;SDS011;11780;13.904;100.620;2023-05-10T05:12:11;14.73;;;13.48;;
23222;SDS011;11780;13.904;100.620;2023-05-10T05:14:43;13.85;;;12.50;;
23222;SDS011;11780;13.904;100.620;2023-05-10T05:17:13;15.52;;;14.13;;
23222;SDS011;11780;13.904;100.620;2023-05-10T05:19:43;13.20;;;12.00;;
23222;SDS011;11780;13.904;100.620;2023-05-10T05:22:13;13.27;;;12.02;;
23222;SDS011;11780;13.904;100.620;2023-05-10T05:24:45;14.52;;;13.13;;
23222;SDS011;11780;13.904;100.620;2023-05-10T05:27:15;13.80;;;12.38;;
23222;SDS011;11780;13.904;100.620;2023-05-10T05:29:46;14.32;;;13.02;;
23222;SDS011;11780;13.904;100.620;2023-05-10T05:32:16;13.82;;;12.52;;
23222;SDS011;11780;13.904;100.620;2023-05-10T05:34:47;14.37;;;13.00;;
23222;SDS011;11780;13.904;100.620;2023-05-10T05:37:18;14.13;;;12.93;;
23222;SDS011;11780;13.904;100.620;2023-05-10T05:39:50;14.43;;;13.02;;
23222;SDS011;11780;13.904;100.620;2023-05-10T05:42:20;16.03;;;13.90;;
23222;SDS011;11780;13.904;100.620;2023-05-10T05:44:50;14.02;;;12.70;;
23222;SDS011;11780;13.904;100.620;2023-05-10T05:47:20;14.70;;;13.30;;
23222;SDS011;11780;13.904;100.620;2023-05-10T05:49:50;15.13;;;13.55;;
23222;SDS011;11780;13.904;100.620;2023-05-10T05:52:20;14.50;;;13.02;;
23222;SDS011;11780;13.904;100.620;2023-05-10T05:54:50;14.32;;;12.63;;
23222;SDS011;11780;13.904;100.620;2023-05-10T05:57:21;13.27;;;12.07;;
23222;SDS011;11780;13.904;100.620;2023-05-10T05:59:52;13.10;;;11.80;;
23222;SDS011;11780;13.904;100.620;2023-05-10T06:02:22;13.80;;;12.60;;
23222;SDS011;11780;13.904;100.620;2023-05-10T06:04:52;13.23;;;11.93;;
23222;SDS011;11780;13.904;100.620;2023-05-10T06:07:22;13.18;;;11.88;;
23222;SDS011;11780;13.904;100.620;2023-05-10T06:09:53;13.70;;;12.43;;
23222;SDS011;11780;13.904;100.620;2023-05-10T06:12:23;13.05;;;11.90;;
23222;SDS011;11780;13.904;100.620;2023-05-10T06:14:53;13.63;;;11.93;;
23222;SDS011;11780;13.904;100.620;2023-05-10T06:17:23;12.43;;;11.32;;
23222;SDS011;11780;13.904;100.620;2023-05-10T06:19:54;12.18;;;11.13;;
23222;SDS011;11780;13.904;100.620;2023-05-10T06:22:25;13.32;;;11.98;;
23222;SDS011;11780;13.904;100.620;2023-05-10T06:24:55;12.68;;;11.55;;
23222;SDS011;11780;13.904;100.620;2023-05-10T06:27:25;11.82;;;10.82;;
23222;SDS011;11780;13.904;100.620;2023-05-10T06:29:55;11.07;;;10.07;;
23222;SDS011;11780;13.904;100.620;2023-05-10T06:32:39;13.32;;;12.02;;
23222;SDS011;11780;13.904;100.620;2023-05-10T06:35:09;13.47;;;12.17;;
23222;SDS011;11780;13.904;100.620;2023-05-10T06:37:39;14.33;;;11.67;;
23222;SDS011;11780;13.904;100.620;2023-05-10T06:40:10;13.68;;;12.43;;
23222;SDS011;11780;13.904;100.620;2023-05-10T06:42:41;13.73;;;12.43;;
23222;SDS011;11780;13.904;100.620;2023-05-10T06:45:11;11.95;;;10.85;;
23222;SDS011;11780;13.904;100.620;2023-05-10T06:50:12;11.18;;;10.27;;
23222;SDS011;11780;13.904;100.620;2023-05-10T06:52:42;12.32;;;11.10;;
23222;SDS011;11780;13.904;100.620;2023-05-10T06:55:13;10.73;;;9.73;;
23222;SDS011;11780;13.904;100.620;2023-05-10T06:57:43;11.37;;;10.47;;
23222;SDS011;11780;13.904;100.620;2023-05-10T07:00:14;11.63;;;10.63;;
23222;SDS011;11780;13.904;100.620;2023-05-10T07:02:45;10.98;;;10.07;;
23222;SDS011;11780;13.904;100.620;2023-05-10T07:05:16;11.70;;;10.70;;
23222;SDS011;11780;13.904;100.620;2023-05-10T07:07:47;11.85;;;10.85;;
23222;SDS011;11780;13.904;100.620;2023-05-10T07:10:17;11.30;;;10.35;;
23222;SDS011;11780;13.904;100.620;2023-05-10T07:12:47;11.13;;;10.18;;
23222;SDS011;11780;13.904;100.620;2023-05-10T07:15:18;11.13;;;10.13;;
23222;SDS011;11780;13.904;100.620;2023-05-10T07:17:48;11.75;;;10.75;;
23222;SDS011;11780;13.904;100.620;2023-05-10T07:20:18;11.73;;;10.57;;
23222;SDS011;11780;13.904;100.620;2023-05-10T07:22:49;11.57;;;10.50;;
23222;SDS011;11780;13.904;100.620;2023-05-10T07:25:19;11.25;;;10.25;;
23222;SDS011;11780;13.904;100.620;2023-05-10T07:27:49;10.75;;;9.75;;
23222;SDS011;11780;13.904;100.620;2023-05-10T07:30:20;10.13;;;9.23;;
23222;SDS011;11780;13.904;100.620;2023-05-10T07:32:50;11.37;;;10.43;;
23222;SDS011;11780;13.904;100.620;2023-05-10T07:35:20;11.63;;;10.60;;
23222;SDS011;11780;13.904;100.620;2023-05-10T07:37:50;11.38;;;10.43;;
23222;SDS011;11780;13.904;100.620;2023-05-10T07:40:20;12.75;;;11.52;;
23222;SDS011;11780;13.904;100.620;2023-05-10T07:42:51;11.10;;;10.20;;
23222;SDS011;11780;13.904;100.620;2023-05-10T07:45:21;11.50;;;10.50;;
23222;SDS011;11780;13.904;100.620;2023-05-10T07:47:52;11.20;;;10.20;;
23222;SDS011;11780;13.904;100.620;2023-05-10T07:50:23;12.02;;;11.02;;
23222;SDS011;11780;13.904;100.620;2023-05-10T07:52:53;12.63;;;11.53;;
23222;SDS011;11780;13.904;100.620;2023-05-10T07:55:24;11.93;;;10.83;;
23222;SDS011;11780;13.904;100.620;2023-05-10T07:57:54;10.83;;;9.93;;
23222;SDS011;11780;13.904;100.620;2023-05-10T08:00:24;12.77;;;10.07;;
23222;SDS011;11780;13.904;100.620;2023-05-10T08:02:55;10.90;;;10.00;;
23222;SDS011;11780;13.904;100.620;2023-05-10T08:05:25;11.30;;;10.30;;
23222;SDS011;11780;13.904;100.620;2023-05-10T08:07:55;12.15;;;10.95;;
23222;SDS011;11780;13.904;100.620;2023-05-10T08:10:25;10.98;;;10.07;;
23222;SDS011;11780;13.904;100.620;2023-05-10T08:12:55;11.60;;;10.60;;
23222;SDS011;11780;13.904;100.620;2023-05-10T08:15:27;11.80;;;10.68;;
23222;SDS011;11780;13.904;100.620;2023-05-10T08:17:57;11.88;;;10.88;;
23222;SDS011;11780;13.904;100.620;2023-05-10T08:20:28;11.73;;;10.73;;
23222;SDS011;11780;13.904;100.620;2023-05-10T08:22:58;12.15;;;11.15;;
23222;SDS011;11780;13.904;100.620;2023-05-10T08:25:28;11.05;;;9.93;;
23222;SDS011;11780;13.904;100.620;2023-05-10T08:27:58;12.30;;;11.20;;
23222;SDS011;11780;13.904;100.620;2023-05-10T08:30:28;11.15;;;10.05;;
23222;SDS011;11780;13.904;100.620;2023-05-10T08:32:59;11.00;;;10.00;;
23222;SDS011;11780;13.904;100.620;2023-05-10T08:35:31;11.45;;;10.35;;
23222;SDS011;11780;13.904;100.620;2023-05-10T08:38:02;11.20;;;10.20;;
23222;SDS011;11780;13.904;100.620;2023-05-10T08:40:32;10.95;;;9.90;;
23222;SDS011;11780;13.904;100.620;2023-05-10T08:43:05;11.95;;;10.85;;
23222;SDS011;11780;13.904;100.620;2023-05-10T08:45:43;11.40;;;10.38;;
23222;SDS011;11780;13.904;100.620;2023-05-10T08:48:17;11.15;;;10.05;;
23222;SDS011;11780;13.904;100.620;2023-05-10T08:50:47;11.20;;;10.02;;
23222;SDS011;11780;13.904;100.620;2023-05-10T08:53:20;11.18;;;10.20;;
23222;SDS011;11780;13.904;100.620;2023-05-10T08:55:54;10.52;;;9.52;;
23222;SDS011;11780;13.904;100.620;2023-05-10T09:00:55;10.45;;;9.55;;
23222;SDS011;11780;13.904;100.620;2023-05-10T09:03:27;10.82;;;9.82;;
23222;SDS011;11780;13.904;100.620;2023-05-10T09:05:58;10.75;;;9.75;;
23222;SDS011;11780;13.904;100.620;2023-05-10T09:08:28;10.23;;;9.27;;
23222;SDS011;11780;13.904;100.620;2023-05-10T09:11:00;11.35;;;10.35;;
23222;SDS011;11780;13.904;100.620;2023-05-10T09:13:32;11.27;;;10.07;;
23222;SDS011;11780;13.904;100.620;2023-05-10T09:16:03;10.50;;;9.50;;
23222;SDS011;11780;13.904;100.620;2023-05-10T09:18:47;9.88;;;8.98;;
23222;SDS011;11780;13.904;100.620;2023-05-10T09:21:19;11.10;;;9.95;;
23222;SDS011;11780;13.904;100.620;2023-05-10T09:23:49;9.00;;;8.20;;
23222;SDS011;11780;13.904;100.620;2023-05-10T09:26:23;9.95;;;9.10;;
23222;SDS011;11780;13.904;100.620;2023-05-10T09:28:57;10.20;;;9.30;;
23222;SDS011;11780;13.904;100.620;2023-05-10T09:31:43;9.50;;;8.70;;
23222;SDS011;11780;13.904;100.620;2023-05-10T09:34:18;9.55;;;8.70;;
23222;SDS011;11780;13.904;100.620;2023-05-10T09:36:56;10.63;;;8.95;;
23222;SDS011;11780;13.904;100.620;2023-05-10T09:39:33;10.00;;;9.10;;
23222;SDS011;11780;13.904;100.620;2023-05-10T09:42:08;9.68;;;8.88;;
23222;SDS011;11780;13.904;100.620;2023-05-10T09:44:39;10.23;;;9.23;;
23222;SDS011;11780;13.904;100.620;2023-05-10T09:47:10;9.85;;;8.90;;
23222;SDS011;11780;13.904;100.620;2023-05-10T09:49:50;10.30;;;9.38;;
23222;SDS011;11780;13.904;100.620;2023-05-10T09:52:20;9.93;;;9.02;;
23222;SDS011;11780;13.904;100.620;2023-05-10T09:54:53;10.77;;;9.73;;
23222;SDS011;11780;13.904;100.620;2023-05-10T09:57:24;10.70;;;9.60;;
23222;SDS011;11780;13.904;100.620;2023-05-10T09:59:55;10.63;;;9.60;;
23222;SDS011;11780;13.904;100.620;2023-05-10T10:02:30;10.27;;;9.38;;
23222;SDS011;11780;13.904;100.620;2023-05-10T10:05:01;11.63;;;10.50;;
23222;SDS011;11780;13.904;100.620;2023-05-10T10:07:35;13.07;;;11.05;;
23222;SDS011;11780;13.904;100.620;2023-05-10T10:10:05;11.73;;;10.57;;
23222;SDS011;11780;13.904;100.620;2023-05-10T10:12:41;11.43;;;10.23;;
23222;SDS011;11780;13.904;100.620;2023-05-10T10:15:11;12.43;;;11.23;;
23222;SDS011;11780;13.904;100.620;2023-05-10T10:17:43;13.05;;;11.85;;
23222;SDS011;11780;13.904;100.620;2023-05-10T10:22:45;11.63;;;10.57;;
23222;SDS011;11780;13.904;100.620;2023-05-10T10:25:16;12.40;;;11.10;;
23222;SDS011;11780;13.904;100.620;2023-05-10T10:36:21;11.70;;;10.50;;
23222;SDS011;11780;13.904;100.620;2023-05-10T10:47:04;15.57;;;13.20;;
23222;SDS011;11780;13.904;100.620;2023-05-10T10:50:02;19.13;;;15.63;;
23222;SDS011;11780;13.904;100.620;2023-05-10T10:52:34;26.02;;;17.05;;
23222;SDS011;11780;13.904;100.620;2023-05-10T10:57:45;30.38;;;19.95;;
23222;SDS011;11780;13.904;100.620;2023-05-10T11:00:18;32.83;;;19.85;;
23222;SDS011;11780;13.904;100.620;2023-05-10T11:02:53;30.85;;;19.42;;
23222;SDS011;11780;13.904;100.620;2023-05-10T11:08:26;28.48;;;18.15;;
23222;SDS011;11780;13.904;100.620;2023-05-10T11:11:04;29.55;;;18.60;;
23222;SDS011;11780;13.904;100.620;2023-05-10T11:13:39;21.92;;;18.10;;
23222;SDS011;11780;13.904;100.620;2023-05-10T11:16:22;22.17;;;18.77;;
23222;SDS011;11780;13.904;100.620;2023-05-10T11:18:58;18.73;;;16.42;;
23222;SDS011;11780;13.904;100.620;2023-05-10T11:24:55;20.05;;;17.90;;
23222;SDS011;11780;13.904;100.620;2023-05-10T11:27:27;19.75;;;17.65;;
23222;SDS011;11780;13.904;100.620;2023-05-10T11:29:58;20.35;;;18.27;;
23222;SDS011;11780;13.904;100.620;2023-05-10T11:32:32;21.17;;;18.13;;
23222;SDS011;11780;13.904;100.620;2023-05-10T11:35:12;18.07;;;16.20;;
23222;SDS011;11780;13.904;100.620;2023-05-10T11:37:42;18.65;;;16.33;;
23222;SDS011;11780;13.904;100.620;2023-05-10T13:19:15;15.48;;;13.50;;
23222;SDS011;11780;13.904;100.620;2023-05-10T13:21:46;13.90;;;12.30;;
23222;SDS011;11780;13.904;100.620;2023-05-10T13:24:17;15.00;;;12.23;;
23222;SDS011;11780;13.904;100.620;2023-05-10T13:26:47;19.08;;;12.82;;
23222;SDS011;11780;13.904;100.620;2023-05-10T13:29:18;12.90;;;11.70;;
23222;SDS011;11780;13.904;100.620;2023-05-10T13:31:48;16.67;;;11.90;;
23222;SDS011;11780;13.904;100.620;2023-05-10T13:34:19;12.82;;;11.02;;
23222;SDS011;11780;13.904;100.620;2023-05-10T13:36:53;13.02;;;11.63;;
23222;SDS011;11780;13.904;100.620;2023-05-10T13:39:25;13.43;;;12.02;;
23222;SDS011;11780;13.904;100.620;2023-05-10T13:41:56;14.43;;;12.93;;
23222;SDS011;11780;13.904;100.620;2023-05-10T13:44:26;12.43;;;11.00;;
23222;SDS011;11780;13.904;100.620;2023-05-10T13:46:56;13.85;;;11.68;;
23222;SDS011;11780;13.904;100.620;2023-05-10T13:49:27;13.48;;;11.57;;
23222;SDS011;11780;13.904;100.620;2023-05-10T13:51:58;12.80;;;11.60;;
23222;SDS011;11780;13.904;100.620;2023-05-10T13:54:28;12.63;;;11.32;;
23222;SDS011;11780;13.904;100.620;2023-05-10T13:59:30;13.23;;;12.00;;
23222;SDS011;11780;13.904;100.620;2023-05-10T14:02:03;13.57;;;12.15;;
23222;SDS011;11780;13.904;100.620;2023-05-10T14:04:33;15.40;;;11.57;;
23222;SDS011;11780;13.904;100.620;2023-05-10T14:07:05;13.43;;;11.98;;
23222;SDS011;11780;13.904;100.620;2023-05-10T14:09:35;13.75;;;12.23;;
23222;SDS011;11780;13.904;100.620;2023-05-10T14:12:06;12.82;;;11.52;;
23222;SDS011;11780;13.904;100.620;2023-05-10T14:14:36;13.32;;;11.65;;
23222;SDS011;11780;13.904;100.620;2023-05-10T14:17:06;15.35;;;11.52;;
23222;SDS011;11780;13.904;100.620;2023-05-10T14:19:38;13.77;;;12.27;;
23222;SDS011;11780;13.904;100.620;2023-05-10T14:22:08;13.80;;;12.47;;
23222;SDS011;11780;13.904;100.620;2023-05-10T14:24:39;13.63;;;12.23;;
23222;SDS011;11780;13.904;100.620;2023-05-10T14:27:09;13.98;;;12.57;;
23222;SDS011;11780;13.904;100.620;2023-05-10T14:29:39;15.02;;;13.00;;
23222;SDS011;11780;13.904;100.620;2023-05-10T14:32:09;14.15;;;12.75;;
23222;SDS011;11780;13.904;100.620;2023-05-10T14:34:40;15.43;;;13.33;;
23222;SDS011;11780;13.904;100.620;2023-05-10T14:37:10;14.77;;;13.27;;
23222;SDS011;11780;13.904;100.620;2023-05-10T14:39:41;14.73;;;13.25;;
23222;SDS011;11780;13.904;100.620;2023-05-10T14:42:12;15.45;;;13.90;;
23222;SDS011;11780;13.904;100.620;2023-05-10T14:44:42;15.07;;;13.57;;
23222;SDS011;11780;13.904;100.620;2023-05-10T14:47:12;16.45;;;14.25;;
23222;SDS011;11780;13.904;100.620;2023-05-10T14:49:42;16.30;;;14.73;;
23222;SDS011;11780;13.904;100.620;2023-05-10T14:52:12;16.17;;;14.57;;
23222;SDS011;11780;13.904;100.620;2023-05-10T14:54:58;17.00;;;15.00;;
23222;SDS011;11780;13.904;100.620;2023-05-10T14:57:31;17.75;;;15.07;;
23222;SDS011;11780;13.904;100.620;2023-05-10T15:00:02;16.70;;;15.00;;
23222;SDS011;11780;13.904;100.620;2023-05-10T15:02:33;16.95;;;14.70;;
23222;SDS011;11780;13.904;100.620;2023-05-10T15:05:04;15.60;;;14.10;;
23222;SDS011;11780;13.904;100.620;2023-05-10T15:07:35;17.02;;;15.20;;
23222;SDS011;11780;13.904;100.620;2023-05-10T15:10:05;15.77;;;14.23;;
23222;SDS011;11780;13.904;100.620;2023-05-10T15:12:36;16.17;;;14.00;;
23222;SDS011;11780;13.904;100.620;2023-05-10T15:15:07;15.05;;;13.50;;
23222;SDS011;11780;13.904;100.620;2023-05-10T15:17:37;15.88;;;14.45;;
23222;SDS011;11780;13.904;100.620;2023-05-10T15:20:08;16.00;;;14.50;;
23222;SDS011;11780;13.904;100.620;2023-05-10T15:22:38;15.17;;;13.77;;
23222;SDS011;11780;13.904;100.620;2023-05-10T15:25:08;16.60;;;14.87;;
23222;SDS011;11780;13.904;100.620;2023-05-10T15:27:39;15.70;;;14.20;;
23222;SDS011;11780;13.904;100.620;2023-05-10T15:30:09;15.20;;;13.65;;
23222;SDS011;11780;13.904;100.620;2023-05-10T15:32:40;16.20;;;14.70;;
23222;SDS011;11780;13.904;100.620;2023-05-10T15:35:10;15.73;;;14.32;;
23222;SDS011;11780;13.904;100.620;2023-05-10T15:37:41;15.70;;;14.30;;
23222;SDS011;11780;13.904;100.620;2023-05-10T15:40:11;15.43;;;14.02;;
23222;SDS011;11780;13.904;100.620;2023-05-10T15:42:41;14.45;;;12.95;;
23222;SDS011;11780;13.904;100.620;2023-05-10T15:45:11;15.38;;;13.90;;
23222;SDS011;11780;13.904;100.620;2023-05-10T15:50:14;14.98;;;13.48;;
23222;SDS011;11780;13.904;100.620;2023-05-10T15:52:45;14.80;;;13.25;;
23222;SDS011;11780;13.904;100.620;2023-05-10T15:55:15;14.67;;;13.00;;
23222;SDS011;11780;13.904;100.620;2023-05-10T15:57:46;14.23;;;12.73;;
23222;SDS011;11780;13.904;100.620;2023-05-10T16:00:17;15.00;;;13.70;;
23222;SDS011;11780;13.904;100.620;2023-05-10T16:02:47;14.43;;;13.18;;
23222;SDS011;11780;13.904;100.620;2023-05-10T16:05:18;15.20;;;13.77;;
23222;SDS011;11780;13.904;100.620;2023-05-10T16:07:48;16.13;;;14.53;;
23222;SDS011;11780;13.904;100.620;2023-05-10T16:10:18;19.70;;;15.43;;
23222;SDS011;11780;13.904;100.620;2023-05-10T16:12:49;15.05;;;13.50;;
23222;SDS011;11780;13.904;100.620;2023-05-10T16:15:19;15.90;;;14.40;;
23222;SDS011;11780;13.904;100.620;2023-05-10T16:17:52;15.45;;;14.00;;
23222;SDS011;11780;13.904;100.620;2023-05-10T16:20:23;15.23;;;13.73;;
23222;SDS011;11780;13.904;100.620;2023-05-10T16:22:53;16.70;;;15.00;;
23222;SDS011;11780;13.904;100.620;2023-05-10T16:27:54;16.88;;;15.18;;
23222;SDS011;11780;13.904;100.620;2023-05-10T16:30:24;16.80;;;15.07;;
23222;SDS011;11780;13.904;100.620;2023-05-10T16:32:58;16.63;;;14.80;;
23222;SDS011;11780;13.904;100.620;2023-05-10T16:35:30;17.48;;;15.75;;
23222;SDS011;11780;13.904;100.620;2023-05-10T16:38:00;17.77;;;15.10;;
23222;SDS011;11780;13.904;100.620;2023-05-10T16:40:31;16.35;;;14.68;;
23222;SDS011;11780;13.904;100.620;2023-05-10T16:43:01;17.58;;;15.88;;
23222;SDS011;11780;13.904;100.620;2023-05-10T16:45:31;17.53;;;15.23;;
23222;SDS011;11780;13.904;100.620;2023-05-10T16:48:01;18.17;;;16.20;;
23222;SDS011;11780;13.904;100.620;2023-05-10T16:50:32;20.53;;;15.73;;
23222;SDS011;11780;13.904;100.620;2023-05-10T16:53:02;18.30;;;16.48;;
23222;SDS011;11780;13.904;100.620;2023-05-10T16:55:32;17.02;;;15.32;;
23222;SDS011;11780;13.904;100.620;2023-05-10T16:58:02;18.67;;;16.08;;
23222;SDS011;11780;13.904;100.620;2023-05-10T17:00:32;16.83;;;15.15;;
23222;SDS011;11780;13.904;100.620;2023-05-10T17:03:02;16.58;;;14.95;;
23222;SDS011;11780;13.904;100.620;2023-05-10T17:05:33;17.00;;;15.13;;
23222;SDS011;11780;13.904;100.620;2023-05-10T17:08:03;16.27;;;14.33;;
23222;SDS011;11780;13.904;100.620;2023-05-10T17:10:34;16.50;;;14.77;;
23222;SDS011;11780;13.904;100.620;2023-05-10T17:13:07;17.77;;;14.30;;
23222;SDS011;11780;13.904;100.620;2023-05-10T17:15:38;16.05;;;13.55;;